createdAt,value
2019-02-08T00:02:32.054Z,-0.68
2019-02-08T00:05:05.655Z,-0.70
2019-02-08T00:07:38.329Z,-0.67
2019-02-08T00:10:11.381Z,-0.65
2019-02-08T00:12:44.296Z,-0.50
2019-02-08T00:15:18.349Z,-0.46
2019-02-08T00:17:51.360Z,-0.47
2019-02-08T00:20:24.398Z,-0.67
2019-02-08T00:22:57.267Z,-0.97
2019-02-08T00:25:29.928Z,-1.02
2019-02-08T00:28:03.493Z,-0.82
2019-02-08T00:30:36.132Z,-0.69
2019-02-08T00:33:08.861Z,-0.44
2019-02-08T00:35:41.850Z,-0.54
2019-02-08T00:38:14.686Z,-0.61
2019-02-08T00:40:47.707Z,-0.66
2019-02-08T00:43:20.439Z,-0.60
2019-02-08T00:45:55.227Z,-0.70
2019-02-08T00:48:27.893Z,-0.95
2019-02-08T00:51:00.510Z,-1.16
2019-02-08T00:53:33.640Z,-1.07
2019-02-08T00:56:07.207Z,-1.14
2019-02-08T00:58:39.925Z,-1.04
2019-02-08T01:01:12.758Z,-1.06
2019-02-08T01:03:45.381Z,-1.05
2019-02-08T01:06:18.014Z,-1.11
2019-02-08T01:08:50.697Z,-1.07
2019-02-08T01:11:23.416Z,-0.92
2019-02-08T01:13:56.114Z,-0.84
2019-02-08T01:16:29.303Z,-0.69
2019-02-08T01:19:01.984Z,-0.57
2019-02-08T01:21:34.525Z,-0.62
2019-02-08T01:24:07.532Z,-0.70
2019-02-08T01:26:40.184Z,-0.55
2019-02-08T01:29:12.977Z,-0.49
2019-02-08T01:31:45.800Z,-0.34
2019-02-08T01:34:18.421Z,-0.20
2019-02-08T01:36:51.076Z,-0.31
2019-02-08T01:39:23.741Z,-0.26
2019-02-08T01:41:56.405Z,-0.12
2019-02-08T01:44:29.210Z,-0.09
2019-02-08T01:47:02.026Z,-0.11
2019-02-08T01:49:34.679Z,0.19
2019-02-08T01:52:07.423Z,0.33
2019-02-08T01:54:40.053Z,0.57
2019-02-08T01:57:12.747Z,0.55
2019-02-08T01:59:45.384Z,0.49
2019-02-08T02:02:18.090Z,0.41
2019-02-08T02:04:50.707Z,0.42
2019-02-08T02:07:23.302Z,0.30
2019-02-08T02:09:56.077Z,0.22
2019-02-08T02:12:28.744Z,0.26
2019-02-08T02:15:01.410Z,0.27
2019-02-08T02:17:33.985Z,0.31
2019-02-08T02:20:08.880Z,0.32
2019-02-08T02:22:41.443Z,0.34
2019-02-08T02:25:15.046Z,0.40
2019-02-08T02:27:47.681Z,0.44
2019-02-08T02:30:27.341Z,0.43
2019-02-08T02:33:00.078Z,0.57
2019-02-08T02:35:33.054Z,0.50
2019-02-08T02:38:05.954Z,0.52
2019-02-08T02:40:38.503Z,0.47
2019-02-08T02:43:11.591Z,0.38
2019-02-08T02:45:44.790Z,0.37
2019-02-08T02:48:17.339Z,0.44
2019-02-08T02:50:50.049Z,0.53
2019-02-08T02:53:22.931Z,0.46
2019-02-08T02:55:55.515Z,0.39
2019-02-08T02:58:28.274Z,0.30
2019-02-08T03:01:00.840Z,0.35
2019-02-08T03:03:33.574Z,0.34
2019-02-08T03:06:06.377Z,0.39
2019-02-08T03:08:39.724Z,0.41
2019-02-08T03:11:12.572Z,0.36
2019-02-08T03:13:45.274Z,0.37
2019-02-08T03:16:17.921Z,0.33
2019-02-08T03:18:50.661Z,0.29
2019-02-08T03:21:23.325Z,0.14
2019-02-08T03:23:56.113Z,0.14
2019-02-08T03:26:28.726Z,0.09
2019-02-08T03:29:01.367Z,0.04
2019-02-08T03:31:34.002Z,0.07
2019-02-08T03:34:06.196Z,0.13
2019-02-08T03:36:38.751Z,0.30
2019-02-08T03:39:11.435Z,0.32
2019-02-08T03:41:44.128Z,0.45
2019-02-08T03:50:41.024Z,0.09
2019-02-08T03:53:14.074Z,-0.18
2019-02-08T03:55:46.669Z,-0.42
2019-02-08T03:58:19.334Z,-0.52
2019-02-08T04:00:59.903Z,-0.50
2019-02-08T04:03:32.586Z,-0.52
2019-02-08T04:06:06.515Z,-0.52
2019-02-08T04:08:42.523Z,-0.46
2019-02-08T04:11:15.729Z,-0.28
2019-02-08T04:13:48.395Z,-0.21
2019-02-08T04:16:21.477Z,-0.01
2019-02-08T04:18:54.164Z,0.10
2019-02-08T04:21:26.761Z,0.10
2019-02-08T04:23:59.537Z,0.18
2019-02-08T04:26:32.124Z,0.37
2019-02-08T04:29:04.887Z,0.40
2019-02-08T04:31:38.033Z,0.29
2019-02-08T04:34:10.623Z,0.32
2019-02-08T04:36:43.175Z,0.31
2019-02-08T04:39:15.761Z,0.29
2019-02-08T04:41:48.406Z,0.40
2019-02-08T04:44:20.946Z,0.46
2019-02-08T04:46:53.624Z,0.46
2019-02-08T04:49:26.451Z,0.44
2019-02-08T04:51:59.131Z,0.46
2019-02-08T04:54:38.086Z,0.54
2019-02-08T04:57:06.268Z,0.61
2019-02-08T04:59:39.060Z,0.54
2019-02-08T05:02:11.648Z,0.52
2019-02-08T05:04:44.492Z,0.46
2019-02-08T05:07:17.106Z,0.46
2019-02-08T05:09:49.823Z,0.34
2019-02-08T05:12:28.422Z,0.38
2019-02-08T05:15:01.010Z,0.41
2019-02-08T05:17:33.698Z,0.39
2019-02-08T05:20:08.328Z,0.33
2019-02-08T05:22:41.148Z,0.18
2019-02-08T05:25:14.605Z,0.06
2019-02-08T05:27:47.411Z,-0.05
2019-02-08T05:30:33.578Z,-0.16
2019-02-08T05:33:07.578Z,-0.30
2019-02-08T05:35:40.198Z,-0.33
2019-02-08T05:38:13.093Z,-0.51
2019-02-08T05:40:45.700Z,-0.60
2019-02-08T05:43:18.422Z,-0.71
2019-02-08T05:45:51.101Z,-0.55
2019-02-08T05:48:23.695Z,-0.63
2019-02-08T05:50:56.505Z,-0.84
2019-02-08T05:53:29.251Z,-0.89
2019-02-08T05:56:01.911Z,-0.86
2019-02-08T05:58:34.527Z,-0.95
2019-02-08T06:01:07.162Z,-1.15
2019-02-08T06:03:39.856Z,-1.29
2019-02-08T06:06:12.614Z,-1.35
2019-02-08T06:08:45.317Z,-1.43
2019-02-08T06:11:18.702Z,-1.49
2019-02-08T06:13:51.381Z,-1.39
2019-02-08T06:16:24.172Z,-1.29
2019-02-08T06:18:56.983Z,-1.27
2019-02-08T06:21:29.689Z,-1.20
2019-02-08T06:24:02.369Z,-1.27
2019-02-08T06:26:35.118Z,-1.39
2019-02-08T06:29:07.766Z,-1.39
2019-02-08T06:31:40.815Z,-1.66
2019-02-08T06:34:13.477Z,-1.88
2019-02-08T06:36:46.274Z,-1.76
2019-02-08T06:39:18.952Z,-1.67
2019-02-08T06:41:51.821Z,-1.71
2019-02-08T06:44:24.505Z,-1.63
2019-02-08T06:46:56.556Z,-1.73
2019-02-08T06:49:29.386Z,-1.70
2019-02-08T06:52:02.186Z,-1.74
2019-02-08T06:54:34.832Z,-1.82
2019-02-08T06:57:44.824Z,-1.83
2019-02-08T07:00:37.094Z,-1.99
2019-02-08T07:03:23.895Z,-1.93
2019-02-08T07:06:03.525Z,-1.51
2019-02-08T07:08:42.448Z,-1.34
2019-02-08T07:11:36.954Z,-1.32
2019-02-08T07:14:32.135Z,-1.37
2019-02-08T07:17:29.296Z,-1.36
2019-02-08T07:20:16.096Z,-1.32
2019-02-08T07:23:26.019Z,-1.13
2019-02-08T07:26:29.582Z,-1.17
2019-02-08T07:29:30.393Z,-1.02
2019-02-08T07:32:26.100Z,-1.06
2019-02-08T07:35:17.968Z,-1.23
2019-02-08T07:38:02.788Z,-1.39
2019-02-08T07:41:04.484Z,-1.30
2019-02-08T07:44:02.966Z,-1.15
2019-02-08T07:47:04.863Z,-1.05
2019-02-08T07:50:14.309Z,-0.87
2019-02-08T07:53:17.237Z,-0.76
2019-02-08T07:56:23.441Z,-1.01
2019-02-08T07:59:13.693Z,-1.14
2019-02-08T08:02:07.382Z,-1.34
2019-02-08T08:04:57.356Z,-0.79
2019-02-08T08:07:56.356Z,0.31
2019-02-08T08:11:00.470Z,1.11
2019-02-08T08:13:50.885Z,1.80
2019-02-08T08:16:33.597Z,2.65
2019-02-08T08:19:29.155Z,3.47
2019-02-08T08:22:13.808Z,3.89
2019-02-08T08:25:11.298Z,4.01
2019-02-08T08:28:01.604Z,4.83
2019-02-08T08:30:52.235Z,5.32
2019-02-08T08:33:51.859Z,6.36
2019-02-08T08:37:09.049Z,7.87
2019-02-08T08:41:02.645Z,9.27
2019-02-08T08:44:38.636Z,9.22
2019-02-08T08:48:22.368Z,10.11
2019-02-08T08:51:52.161Z,11.45
2019-02-08T08:55:42.171Z,12.61
2019-02-08T08:59:11.515Z,10.53
2019-02-08T09:02:42.470Z,10.93
2019-02-08T09:06:20.067Z,11.52
2019-02-08T09:09:46.617Z,12.66
2019-02-08T09:13:33.297Z,13.79
2019-02-08T09:17:10.615Z,13.33
2019-02-08T09:20:40.682Z,11.03
2019-02-08T09:24:11.503Z,10.71
2019-02-08T09:27:39.542Z,10.56
2019-02-08T09:31:30.430Z,9.97
2019-02-08T09:34:58.146Z,10.09
2019-02-08T09:38:00.784Z,10.69
2019-02-08T09:41:17.202Z,10.29
2019-02-08T09:44:52.311Z,10.72
2019-02-08T09:48:43.587Z,11.45
2019-02-08T09:51:52.526Z,12.64
2019-02-08T09:55:10.794Z,14.52
2019-02-08T09:58:18.157Z,13.98
2019-02-08T10:01:42.227Z,14.33
2019-02-08T10:05:31.905Z,15.19
2019-02-08T10:08:55.603Z,16.01
2019-02-08T10:12:32.398Z,16.23
2019-02-08T10:16:16.748Z,15.16
2019-02-08T10:19:50.584Z,14.50
2019-02-08T10:23:26.404Z,14.13
2019-02-08T10:26:41.683Z,13.37
2019-02-08T10:30:25.472Z,13.10
2019-02-08T10:33:43.002Z,13.35
2019-02-08T10:37:03.964Z,13.81
2019-02-08T10:40:21.960Z,13.18
2019-02-08T10:44:05.838Z,11.87
2019-02-08T10:47:53.681Z,13.35
2019-02-08T10:51:23.499Z,13.41
2019-02-08T10:55:02.565Z,14.15
2019-02-08T10:58:33.310Z,14.13
2019-02-08T11:02:31.605Z,13.79
2019-02-08T11:06:11.874Z,14.11
2019-02-08T11:09:52.286Z,14.87
2019-02-08T11:13:31.462Z,16.00
2019-02-08T11:17:20.343Z,15.91
2019-02-08T11:19:57.888Z,15.21
2019-02-08T11:22:30.655Z,15.24
2019-02-08T11:25:07.757Z,15.72
2019-02-08T11:27:40.499Z,15.82
2019-02-08T11:30:16.998Z,17.20
2019-02-08T11:32:49.679Z,16.35
2019-02-08T11:35:22.375Z,16.92
2019-02-08T11:37:55.212Z,18.21
2019-02-08T11:40:30.389Z,19.21
2019-02-08T11:43:03.141Z,18.32
2019-02-08T11:45:35.884Z,18.51
2019-02-08T11:48:09.039Z,18.66
2019-02-08T11:50:41.816Z,17.16
2019-02-08T11:53:14.700Z,16.40
2019-02-08T11:55:48.814Z,16.71
2019-02-08T11:58:21.485Z,16.90
2019-02-08T12:00:56.041Z,17.68
2019-02-08T12:03:28.849Z,18.36
2019-02-08T12:06:01.603Z,17.66
2019-02-08T12:08:34.477Z,18.74
2019-02-08T12:11:07.143Z,18.00
2019-02-08T12:13:39.970Z,18.14
2019-02-08T12:16:12.950Z,15.04
2019-02-08T12:18:45.642Z,14.52
2019-02-08T12:21:18.422Z,14.62
2019-02-08T12:23:51.268Z,14.68
2019-02-08T12:26:23.872Z,15.25
2019-02-08T12:28:56.698Z,15.61
2019-02-08T12:31:29.428Z,16.14
2019-02-08T12:34:02.155Z,16.57
2019-02-08T12:36:35.037Z,16.84
2019-02-08T12:39:14.568Z,18.02
2019-02-08T12:41:47.211Z,17.40
2019-02-08T12:44:19.968Z,16.28
2019-02-08T12:46:52.656Z,15.54
2019-02-08T12:49:25.365Z,14.28
2019-02-08T12:51:58.078Z,13.65
2019-02-08T12:54:30.808Z,13.87
2019-02-08T12:57:04.483Z,13.02
2019-02-08T12:59:37.279Z,12.86
2019-02-08T13:02:10.250Z,11.67
2019-02-08T13:04:42.893Z,11.37
2019-02-08T13:07:15.778Z,10.84
2019-02-08T13:09:48.436Z,10.89
2019-02-08T13:12:21.683Z,10.71
2019-02-08T13:14:54.343Z,10.89
2019-02-08T13:17:27.329Z,10.92
2019-02-08T13:20:00.033Z,10.79
2019-02-08T13:22:32.704Z,10.23
2019-02-08T13:25:06.142Z,9.74
2019-02-08T13:27:38.841Z,9.70
2019-02-08T13:30:22.058Z,9.71
2019-02-08T13:32:54.931Z,9.43
2019-02-08T13:35:28.395Z,9.25
2019-02-08T13:38:01.541Z,9.36
2019-02-08T13:40:34.367Z,9.58
2019-02-08T13:43:06.950Z,9.19
2019-02-08T13:45:39.627Z,9.67
2019-02-08T13:48:12.538Z,9.63
2019-02-08T13:50:45.272Z,9.56
2019-02-08T13:53:18.039Z,9.85
2019-02-08T13:55:50.825Z,9.76
2019-02-08T13:58:23.570Z,10.02
2019-02-08T14:00:57.716Z,10.05
2019-02-08T14:03:30.462Z,10.75
2019-02-08T14:06:03.258Z,11.46
2019-02-08T14:08:36.158Z,11.04
2019-02-08T14:11:08.876Z,10.35
2019-02-08T14:13:41.645Z,9.84
2019-02-08T14:16:14.535Z,9.55
2019-02-08T14:18:50.106Z,9.44
2019-02-08T14:21:22.816Z,8.99
2019-02-08T14:23:55.427Z,9.38
2019-02-08T14:26:28.254Z,8.96
2019-02-08T14:29:01.116Z,8.93
2019-02-08T14:31:33.838Z,8.96
2019-02-08T14:34:07.355Z,8.98
2019-02-08T14:36:40.100Z,8.91
2019-02-08T14:39:13.154Z,8.43
2019-02-08T14:41:45.887Z,8.72
2019-02-08T14:44:18.755Z,8.60
2019-02-08T14:46:51.402Z,8.48
2019-02-08T14:49:24.139Z,8.56
2019-02-08T14:51:56.885Z,8.83
2019-02-08T14:54:29.561Z,7.83
2019-02-08T14:57:02.387Z,7.72
2019-02-08T14:59:35.339Z,7.33
2019-02-08T15:02:08.012Z,7.43
2019-02-08T15:04:40.952Z,7.64
2019-02-08T15:07:13.537Z,7.66
2019-02-08T15:09:46.363Z,7.55
2019-02-08T15:12:18.572Z,7.26
2019-02-08T15:14:51.218Z,7.05
2019-02-08T15:17:23.856Z,6.70
2019-02-08T15:19:57.895Z,6.50
2019-02-08T15:22:30.574Z,6.31
2019-02-08T15:25:03.853Z,6.50
2019-02-08T15:27:36.507Z,6.60
2019-02-08T15:30:12.131Z,6.49
2019-02-08T15:32:44.780Z,6.68
2019-02-08T15:35:20.044Z,6.75
2019-02-08T15:37:52.679Z,6.63
2019-02-08T15:40:45.039Z,6.69
2019-02-08T15:43:20.033Z,6.25
2019-02-08T15:45:59.575Z,5.68
2019-02-08T15:48:32.286Z,5.63
2019-02-08T15:51:05.319Z,5.45
2019-02-08T15:53:37.884Z,5.26
2019-02-08T15:56:15.129Z,4.93
2019-02-08T15:58:47.872Z,4.82
2019-02-08T16:01:21.205Z,4.80
2019-02-08T16:03:53.939Z,4.64
2019-02-08T16:06:26.696Z,4.46
2019-02-08T16:08:59.447Z,4.41
2019-02-08T16:11:32.087Z,4.33
2019-02-08T16:14:05.327Z,3.95
2019-02-08T16:16:38.307Z,3.82
2019-02-08T16:19:11.566Z,3.55
2019-02-08T16:21:44.210Z,3.38
2019-02-08T16:24:16.889Z,3.43
2019-02-08T16:26:49.567Z,3.18
2019-02-08T16:29:22.718Z,2.94
2019-02-08T16:31:55.416Z,2.86
2019-02-08T16:34:28.108Z,2.76
2019-02-08T16:37:03.542Z,2.68
2019-02-08T16:39:35.072Z,2.53
2019-02-08T16:42:08.024Z,2.59
2019-02-08T16:44:40.896Z,2.59
2019-02-08T16:47:13.481Z,2.73
2019-02-08T16:49:46.115Z,2.63
2019-02-08T16:52:18.692Z,2.31
2019-02-08T16:54:51.355Z,2.12
2019-02-08T16:57:24.120Z,1.96
2019-02-08T16:59:56.703Z,1.97
2019-02-08T17:02:29.479Z,2.14
2019-02-08T17:05:02.212Z,2.15
2019-02-08T17:07:34.770Z,2.20
2019-02-08T17:10:10.442Z,2.26
2019-02-08T17:12:43.023Z,2.17
2019-02-08T17:15:20.134Z,1.98
2019-02-08T17:17:52.771Z,1.98
2019-02-08T17:20:31.771Z,2.04
2019-02-08T17:23:04.758Z,2.02
2019-02-08T17:25:37.427Z,2.01
2019-02-08T17:28:11.700Z,1.85
2019-02-08T17:30:44.330Z,1.91
2019-02-08T17:33:16.892Z,1.99
2019-02-08T17:35:50.345Z,2.07
2019-02-08T17:38:23.001Z,2.01
2019-02-08T17:40:55.693Z,2.15
2019-02-08T17:43:28.271Z,2.22
2019-02-08T17:46:00.980Z,2.31
2019-02-08T17:48:33.568Z,2.15
2019-02-08T17:51:06.505Z,2.11
2019-02-08T17:53:39.187Z,2.36
2019-02-08T17:56:11.923Z,2.24
2019-02-08T17:58:44.513Z,2.15
2019-02-08T18:01:17.118Z,2.31
2019-02-08T18:03:49.688Z,2.45
2019-02-08T18:06:22.291Z,2.45
2019-02-08T18:08:54.900Z,2.30
2019-02-08T18:11:27.573Z,2.19
2019-02-08T18:14:00.160Z,2.19
2019-02-08T18:16:32.965Z,2.31
2019-02-08T18:19:05.775Z,2.40
2019-02-08T18:21:38.524Z,2.45
2019-02-08T18:24:11.486Z,2.45
2019-02-08T18:26:44.132Z,2.32
2019-02-08T18:29:18.614Z,2.25
2019-02-08T18:31:51.683Z,2.38
2019-02-08T18:34:24.429Z,2.35
2019-02-08T18:36:57.116Z,2.15
2019-02-08T18:39:29.784Z,1.96
2019-02-08T18:42:02.563Z,1.85
2019-02-08T18:44:35.113Z,1.75
2019-02-08T18:47:07.737Z,1.79
2019-02-08T18:49:40.576Z,1.76
2019-02-08T18:52:13.244Z,1.83
2019-02-08T18:54:45.937Z,1.98
2019-02-08T18:57:18.575Z,1.81
2019-02-08T18:59:51.297Z,1.71
2019-02-08T19:02:23.948Z,1.82
2019-02-08T19:04:56.552Z,2.10
2019-02-08T19:07:29.185Z,2.09
2019-02-08T19:10:01.782Z,2.02
2019-02-08T19:12:33.581Z,1.84
2019-02-08T19:15:08.301Z,1.71
2019-02-08T19:17:41.033Z,1.80
2019-02-08T19:20:16.506Z,2.03
2019-02-08T19:22:49.175Z,1.99
2019-02-08T19:25:25.941Z,2.19
2019-02-08T19:27:58.633Z,1.80
2019-02-08T19:30:34.725Z,1.73
2019-02-08T19:33:08.131Z,2.13
2019-02-08T19:35:40.826Z,1.94
2019-02-08T19:38:13.477Z,1.95
2019-02-08T19:40:47.191Z,2.40
2019-02-08T19:43:19.893Z,1.95
2019-02-08T19:45:52.490Z,1.97
2019-02-08T19:48:25.225Z,1.75
2019-02-08T19:50:57.842Z,2.24
2019-02-08T19:53:30.547Z,2.84
2019-02-08T19:56:03.256Z,2.24
2019-02-08T19:58:35.970Z,2.34
2019-02-08T20:01:08.704Z,2.49
2019-02-08T20:03:41.396Z,2.61
2019-02-08T20:06:14.209Z,2.94
2019-02-08T20:08:47.746Z,3.01
2019-02-08T20:11:20.408Z,3.11
2019-02-08T20:13:53.053Z,2.98
2019-02-08T20:16:25.805Z,2.85
2019-02-08T20:18:58.802Z,2.88
2019-02-08T20:21:31.568Z,2.98
2019-02-08T20:24:04.367Z,3.37
2019-02-08T20:26:36.936Z,3.26
2019-02-08T20:29:09.541Z,3.44
2019-02-08T20:31:42.244Z,3.46
2019-02-08T20:34:15.059Z,3.69
2019-02-08T20:36:47.882Z,3.55
2019-02-08T20:39:20.592Z,3.41
2019-02-08T20:41:53.316Z,3.40
2019-02-08T20:44:25.939Z,3.31
2019-02-08T20:46:58.683Z,3.48
2019-02-08T20:49:31.331Z,3.48
2019-02-08T20:52:03.989Z,3.55
2019-02-08T20:54:36.542Z,3.47
2019-02-08T20:57:09.546Z,3.58
2019-02-08T20:59:42.225Z,3.72
2019-02-08T21:02:15.162Z,3.82
2019-02-08T21:04:47.909Z,3.94
2019-02-08T21:07:20.569Z,3.72
2019-02-08T21:09:53.252Z,3.34
2019-02-08T21:12:25.806Z,3.23
2019-02-08T21:14:58.401Z,3.49
2019-02-08T21:17:31.170Z,3.67
2019-02-08T21:20:04.319Z,3.82
2019-02-08T21:22:37.018Z,3.73
2019-02-08T21:25:11.880Z,3.51
2019-02-08T21:27:44.530Z,3.42
2019-02-08T21:30:18.106Z,3.57
2019-02-08T21:32:51.892Z,3.47
2019-02-08T21:35:24.840Z,3.49
2019-02-08T21:37:57.437Z,3.34
2019-02-08T21:40:30.207Z,3.22
2019-02-08T21:43:02.828Z,3.25
2019-02-08T21:45:36.466Z,3.21
2019-02-08T21:48:10.852Z,3.05
2019-02-08T21:50:43.920Z,2.97
2019-02-08T21:53:16.692Z,3.26
2019-02-08T21:55:49.419Z,3.69
2019-02-08T21:58:22.062Z,3.63
2019-02-08T22:00:54.674Z,3.62
2019-02-08T22:03:27.226Z,3.85
2019-02-08T22:06:07.343Z,3.81
2019-02-08T22:08:39.982Z,3.91
2019-02-08T22:11:12.694Z,4.00
2019-02-08T22:13:45.446Z,4.11
2019-02-08T22:16:18.182Z,5.07
2019-02-08T22:18:50.769Z,4.85
2019-02-08T22:21:23.361Z,6.09
2019-02-08T22:23:55.895Z,6.28
2019-02-08T22:26:28.546Z,6.29
2019-02-08T22:29:01.365Z,5.76
2019-02-08T22:31:34.146Z,5.38
2019-02-08T22:34:06.950Z,5.24
2019-02-08T22:36:39.635Z,5.32
2019-02-08T22:39:12.356Z,4.97
2019-02-08T22:41:44.943Z,5.95
2019-02-08T22:44:17.526Z,5.63
2019-02-08T22:46:50.276Z,5.43
2019-02-08T22:49:22.834Z,5.41
2019-02-08T22:51:55.450Z,4.96
2019-02-08T22:54:28.034Z,4.48
2019-02-08T22:57:00.808Z,4.46
2019-02-08T22:59:33.582Z,4.28
2019-02-08T23:02:08.731Z,4.53
2019-02-08T23:04:41.511Z,4.74
2019-02-08T23:07:14.147Z,5.38
2019-02-08T23:09:46.789Z,5.61
2019-02-08T23:12:19.471Z,6.97
2019-02-08T23:14:52.455Z,7.85
2019-02-08T23:17:25.144Z,8.22
2019-02-08T23:19:58.061Z,8.78
2019-02-08T23:22:30.853Z,8.95
2019-02-08T23:25:03.657Z,8.79
2019-02-08T23:27:36.385Z,8.65
2019-02-08T23:30:11.567Z,7.90
2019-02-08T23:32:44.349Z,7.63
2019-02-08T23:35:17.244Z,7.61
2019-02-08T23:37:50.011Z,7.89
2019-02-08T23:40:22.721Z,7.40
2019-02-08T23:42:55.456Z,7.47
2019-02-08T23:45:28.442Z,7.46
2019-02-08T23:48:01.241Z,7.93
2019-02-08T23:50:33.946Z,8.40
2019-02-08T23:53:09.749Z,8.13
2019-02-08T23:55:42.720Z,7.93
2019-02-08T23:58:15.410Z,7.99
